createdAt,value
2018-01-10T00:01:01.652Z,17.00
2018-01-10T00:03:30.616Z,18.67
2018-01-10T00:06:00.457Z,20.00
2018-01-10T00:08:29.400Z,21.00
2018-01-10T00:10:58.793Z,18.57
2018-01-10T00:13:29.250Z,19.00
2018-01-10T00:15:58.777Z,19.80
2018-01-10T00:18:28.343Z,19.77
2018-01-10T00:20:57.277Z,16.47
2018-01-10T00:23:26.681Z,17.33
2018-01-10T00:25:55.622Z,17.17
2018-01-10T00:28:24.699Z,16.33
2018-01-10T00:30:53.652Z,17.80
2018-01-10T00:33:22.594Z,18.70
2018-01-10T00:35:51.585Z,18.57
2018-01-10T00:38:20.565Z,19.20
2018-01-10T00:40:49.525Z,18.67
2018-01-10T00:43:18.481Z,17.90
2018-01-10T00:45:47.407Z,17.93
2018-01-10T00:48:16.921Z,17.17
2018-01-10T00:50:45.895Z,16.70
2018-01-10T00:53:14.844Z,15.63
2018-01-10T00:55:43.863Z,16.97
2018-01-10T00:58:13.237Z,17.17
2018-01-10T01:00:42.268Z,15.50
2018-01-10T01:03:11.262Z,15.30
2018-01-10T01:05:40.988Z,18.07
2018-01-10T01:08:09.928Z,15.20
2018-01-10T01:10:38.992Z,15.70
2018-01-10T01:13:07.923Z,17.73
2018-01-10T01:15:36.901Z,17.77
2018-01-10T01:18:05.880Z,16.23
2018-01-10T01:20:34.828Z,15.30
2018-01-10T01:23:03.821Z,17.03
2018-01-10T01:25:32.774Z,16.90
2018-01-10T01:28:01.747Z,16.90
2018-01-10T01:30:30.710Z,16.80
2018-01-10T01:32:59.659Z,16.83
2018-01-10T01:35:29.045Z,15.03
2018-01-10T01:37:58.377Z,16.60
2018-01-10T01:40:27.714Z,16.50
2018-01-10T01:42:56.697Z,17.23
2018-01-10T01:45:26.037Z,17.10
2018-01-10T01:47:55.013Z,17.13
2018-01-10T01:50:23.969Z,18.80
2018-01-10T01:52:53.057Z,17.50
2018-01-10T01:55:22.776Z,17.30
2018-01-10T01:57:52.509Z,17.53
2018-01-10T02:00:21.484Z,15.37
2018-01-10T02:02:50.437Z,17.47
2018-01-10T02:05:20.196Z,16.40
2018-01-10T02:07:49.189Z,18.57
2018-01-10T02:10:18.208Z,16.10
2018-01-10T02:12:47.196Z,17.37
2018-01-10T02:15:16.149Z,17.50
2018-01-10T02:17:45.252Z,18.77
2018-01-10T02:20:14.191Z,20.07
2018-01-10T02:22:43.136Z,18.10
2018-01-10T02:25:12.109Z,18.13
2018-01-10T02:27:41.479Z,16.80
2018-01-10T02:30:10.857Z,16.90
2018-01-10T02:32:39.891Z,19.37
2018-01-10T02:35:09.591Z,19.80
2018-01-10T02:37:38.994Z,18.60
2018-01-10T02:40:08.698Z,17.20
2018-01-10T02:42:38.434Z,19.70
2018-01-10T02:45:07.813Z,18.80
2018-01-10T02:47:37.566Z,17.40
2018-01-10T02:50:06.585Z,19.97
2018-01-10T02:52:35.537Z,20.50
2018-01-10T02:55:04.516Z,19.70
2018-01-10T02:57:34.281Z,18.93
2018-01-10T03:00:03.228Z,18.67
2018-01-10T03:02:32.964Z,20.80
2018-01-10T03:05:01.948Z,17.87
2018-01-10T03:07:31.827Z,17.77
2018-01-10T03:10:00.867Z,17.97
2018-01-10T03:12:29.824Z,18.37
2018-01-10T03:14:59.560Z,18.50
2018-01-10T03:17:28.537Z,19.00
2018-01-10T03:19:57.521Z,19.70
2018-01-10T03:22:26.500Z,20.90
2018-01-10T03:24:56.259Z,19.53
2018-01-10T03:27:25.212Z,21.03
2018-01-10T03:29:54.579Z,18.30
2018-01-10T03:32:24.326Z,21.17
2018-01-10T03:34:53.724Z,21.07
2018-01-10T03:37:22.680Z,19.73
2018-01-10T03:39:51.627Z,20.20
2018-01-10T03:42:21.004Z,20.13
2018-01-10T03:44:50.717Z,19.07
2018-01-10T03:47:20.456Z,20.03
2018-01-10T03:49:49.924Z,19.17
2018-01-10T03:52:19.701Z,18.83
2018-01-10T03:54:50.152Z,18.67
2018-01-10T03:57:19.892Z,20.70
2018-01-10T03:59:49.605Z,25.07
2018-01-10T04:02:18.596Z,22.23
2018-01-10T04:04:47.552Z,23.23
2018-01-10T04:07:17.339Z,19.53
2018-01-10T04:09:46.681Z,18.23
2018-01-10T04:12:15.620Z,19.30
2018-01-10T04:14:44.597Z,18.63
2018-01-10T04:17:13.548Z,18.70
2018-01-10T04:19:43.289Z,19.33
2018-01-10T04:22:13.408Z,20.63
2018-01-10T04:24:42.380Z,18.90
2018-01-10T04:27:11.386Z,18.10
2018-01-10T04:29:40.359Z,17.53
2018-01-10T04:32:10.113Z,18.80
2018-01-10T04:34:39.099Z,18.80
2018-01-10T04:37:08.075Z,25.12
2018-01-10T04:39:38.160Z,19.50
2018-01-10T04:42:07.524Z,21.07
2018-01-10T04:44:36.858Z,19.43
2018-01-10T04:47:06.609Z,19.97
2018-01-10T04:49:35.569Z,18.47
2018-01-10T04:52:05.316Z,18.87
2018-01-10T04:54:34.279Z,17.07
2018-01-10T04:57:03.253Z,18.87
2018-01-10T04:59:32.620Z,18.57
2018-01-10T05:02:01.637Z,18.80
2018-01-10T05:04:30.701Z,19.67
2018-01-10T05:06:59.640Z,19.40
2018-01-10T05:09:29.360Z,17.30
2018-01-10T05:11:58.310Z,17.20
2018-01-10T05:14:27.673Z,18.17
2018-01-10T05:16:56.640Z,17.13
2018-01-10T05:19:26.380Z,17.37
2018-01-10T05:21:55.374Z,17.93
2018-01-10T05:24:24.296Z,18.10
2018-01-10T05:26:53.252Z,16.30
2018-01-10T05:29:23.153Z,17.13
2018-01-10T05:31:52.113Z,16.87
2018-01-10T05:34:21.457Z,17.20
2018-01-10T05:36:50.421Z,16.83
2018-01-10T05:39:21.791Z,16.23
2018-01-10T05:41:50.774Z,17.60
2018-01-10T05:44:19.707Z,18.40
2018-01-10T05:46:48.900Z,18.40
2018-01-10T05:49:18.245Z,17.80
2018-01-10T05:51:48.157Z,16.97
2018-01-10T05:54:17.501Z,16.07
2018-01-10T05:56:46.525Z,15.77
2018-01-10T05:59:15.488Z,15.87
2018-01-10T06:01:44.486Z,17.13
2018-01-10T06:04:13.534Z,18.53
2018-01-10T06:06:42.514Z,17.57
2018-01-10T06:09:11.847Z,16.83
2018-01-10T06:11:40.812Z,17.00
2018-01-10T06:14:10.198Z,19.00
2018-01-10T06:16:39.582Z,17.57
2018-01-10T06:19:09.292Z,16.93
2018-01-10T06:21:38.281Z,17.70
2018-01-10T06:24:07.228Z,16.90
2018-01-10T06:26:36.611Z,17.50
2018-01-10T06:29:05.553Z,17.30
2018-01-10T06:31:34.557Z,17.73
2018-01-10T06:34:03.520Z,18.13
2018-01-10T06:36:32.500Z,17.47
2018-01-10T06:39:01.882Z,17.93
2018-01-10T06:41:31.219Z,16.37
2018-01-10T06:44:00.187Z,18.00
2018-01-10T06:46:29.189Z,16.50
2018-01-10T06:48:58.195Z,16.93
2018-01-10T06:51:27.608Z,15.40
2018-01-10T06:53:56.579Z,17.30
2018-01-10T06:56:25.544Z,16.27
2018-01-10T06:58:55.337Z,16.70
2018-01-10T07:01:24.280Z,17.63
2018-01-10T07:03:53.682Z,17.40
2018-01-10T07:06:22.655Z,17.97
2018-01-10T07:08:52.658Z,19.00
2018-01-10T07:11:22.691Z,16.60
2018-01-10T07:13:52.125Z,16.57
2018-01-10T07:16:21.149Z,16.30
2018-01-10T07:18:50.085Z,15.87
2018-01-10T07:21:19.047Z,15.70
2018-01-10T07:23:48.342Z,17.20
2018-01-10T07:26:17.402Z,16.77
2018-01-10T07:28:46.737Z,17.53
2018-01-10T07:31:15.746Z,17.20
2018-01-10T07:33:44.745Z,16.27
2018-01-10T07:36:13.722Z,17.40
2018-01-10T07:38:42.659Z,16.77
2018-01-10T07:41:11.623Z,16.77
2018-01-10T07:43:40.604Z,16.00
2018-01-10T07:46:10.382Z,15.67
2018-01-10T07:48:39.658Z,17.53
2018-01-10T07:51:08.893Z,18.00
2018-01-10T07:53:37.910Z,16.97
2018-01-10T07:56:07.285Z,16.20
2018-01-10T07:58:36.560Z,15.30
2018-01-10T08:01:06.015Z,16.50
2018-01-10T08:03:36.009Z,15.53
2018-01-10T08:06:05.007Z,15.53
2018-01-10T08:08:35.079Z,15.17
2018-01-10T08:11:04.792Z,15.63
2018-01-10T08:13:35.012Z,15.50
2018-01-10T08:16:05.427Z,16.27
2018-01-10T08:18:35.125Z,16.17
2018-01-10T08:21:04.377Z,16.90
2018-01-10T08:23:33.641Z,15.70
2018-01-10T08:26:02.694Z,19.20
2018-01-10T08:28:32.434Z,16.10
2018-01-10T08:31:01.375Z,16.00
2018-01-10T08:33:30.742Z,14.60
2018-01-10T08:35:59.741Z,15.03
2018-01-10T08:38:28.718Z,16.23
2018-01-10T08:40:57.670Z,16.90
2018-01-10T08:43:27.428Z,17.97
2018-01-10T08:45:56.814Z,16.53
2018-01-10T08:48:26.475Z,15.10
2018-01-10T08:50:55.425Z,16.23
2018-01-10T08:53:25.170Z,16.30
2018-01-10T08:55:54.182Z,18.60
2018-01-10T08:58:23.906Z,14.90
2018-01-10T09:00:53.721Z,16.30
2018-01-10T09:03:23.627Z,16.40
2018-01-10T09:05:52.567Z,14.40
2018-01-10T09:08:21.544Z,16.57
2018-01-10T09:10:50.524Z,16.57
2018-01-10T09:13:19.896Z,17.63
2018-01-10T09:15:49.613Z,16.70
2018-01-10T09:18:18.587Z,14.63
2018-01-10T09:20:48.309Z,18.20
2018-01-10T09:23:18.057Z,16.27
2018-01-10T09:25:47.051Z,16.97
2018-01-10T09:28:17.048Z,16.23
2018-01-10T09:30:46.017Z,17.60
2018-01-10T09:33:16.502Z,18.33
2018-01-10T09:35:45.461Z,15.90
2018-01-10T09:38:14.421Z,17.27
2018-01-10T09:40:44.218Z,15.73
2018-01-10T09:43:13.162Z,16.57
2018-01-10T09:45:42.537Z,15.00
2018-01-10T09:48:12.244Z,15.37
2018-01-10T09:50:42.156Z,15.37
2018-01-10T09:53:11.905Z,15.70
2018-01-10T09:55:41.629Z,17.37
2018-01-10T09:58:10.595Z,15.93
2018-01-10T10:00:39.547Z,15.13
2018-01-10T10:03:08.537Z,15.53
2018-01-10T10:05:37.488Z,15.10
2018-01-10T10:08:07.226Z,15.10
2018-01-10T10:10:36.193Z,15.97
2018-01-10T10:13:05.570Z,14.97
2018-01-10T10:15:34.536Z,15.37
2018-01-10T10:18:04.268Z,16.53
2018-01-10T10:20:33.340Z,15.10
2018-01-10T10:23:02.280Z,13.80
2018-01-10T10:25:31.248Z,15.47
2018-01-10T10:28:00.266Z,14.93
2018-01-10T10:30:30.092Z,14.47
2018-01-10T10:32:59.440Z,15.10
2018-01-10T10:35:28.873Z,14.20
2018-01-10T10:37:58.617Z,16.17
2018-01-10T10:40:27.983Z,15.13
2018-01-10T10:42:57.033Z,17.30
2018-01-10T10:45:26.812Z,13.90
2018-01-10T10:47:56.567Z,15.57
2018-01-10T10:50:26.292Z,14.00
2018-01-10T10:52:55.674Z,14.57
2018-01-10T10:55:25.012Z,14.60
2018-01-10T10:57:53.980Z,15.03
2018-01-10T11:00:27.674Z,14.73
2018-01-10T11:02:57.012Z,16.40
2018-01-10T11:05:26.745Z,16.50
2018-01-10T11:07:56.492Z,15.37
2018-01-10T11:10:26.209Z,15.33
2018-01-10T11:12:55.559Z,17.77
2018-01-10T11:15:24.545Z,16.13
2018-01-10T11:17:53.921Z,16.77
2018-01-10T11:20:22.896Z,16.37
2018-01-10T11:22:52.286Z,15.97
2018-01-10T11:25:21.655Z,17.00
2018-01-10T11:27:51.571Z,16.40
2018-01-10T11:30:20.527Z,16.90
2018-01-10T11:32:49.564Z,15.80
2018-01-10T11:35:18.518Z,15.43
2018-01-10T11:37:47.516Z,15.00
2018-01-10T11:40:16.539Z,16.43
2018-01-10T11:42:46.364Z,14.93
2018-01-10T11:45:15.764Z,14.87
2018-01-10T11:47:44.751Z,16.60
2018-01-10T11:50:13.729Z,15.27
2018-01-10T11:52:42.774Z,14.90
2018-01-10T11:55:12.543Z,15.20
2018-01-10T11:57:41.511Z,16.27
2018-01-10T12:00:11.753Z,15.20
2018-01-10T12:02:40.798Z,16.63
2018-01-10T12:05:09.795Z,15.27
2018-01-10T12:07:38.858Z,14.53
2018-01-10T12:10:08.657Z,14.83
2018-01-10T12:12:39.300Z,15.10
2018-01-10T12:15:08.304Z,14.77
2018-01-10T12:17:39.112Z,15.17
2018-01-10T12:20:08.889Z,14.57
2018-01-10T12:22:37.880Z,14.40
2018-01-10T12:25:06.846Z,16.17
2018-01-10T12:27:36.585Z,14.63
2018-01-10T12:30:06.449Z,13.77
2018-01-10T12:32:35.872Z,15.90
2018-01-10T12:35:06.436Z,16.60
2018-01-10T12:37:36.853Z,15.97
2018-01-10T12:40:06.684Z,16.03
2018-01-10T12:42:35.798Z,15.47
2018-01-10T12:45:04.920Z,15.10
2018-01-10T12:47:35.194Z,15.57
2018-01-10T12:50:06.392Z,14.50
2018-01-10T12:52:35.753Z,16.90
2018-01-10T12:55:05.620Z,15.90
2018-01-10T12:57:35.733Z,16.60
2018-01-10T13:00:05.517Z,16.07
2018-01-10T13:02:35.983Z,17.67
2018-01-10T13:05:05.715Z,15.30
2018-01-10T13:07:34.729Z,16.80
2018-01-10T13:10:03.711Z,15.87
2018-01-10T13:12:34.225Z,15.23
2018-01-10T13:15:04.283Z,16.07
2018-01-10T13:17:33.222Z,17.13
2018-01-10T13:20:02.583Z,16.80
2018-01-10T13:22:32.324Z,17.07
2018-01-10T13:25:01.702Z,16.80
2018-01-10T13:27:31.461Z,17.90
2018-01-10T13:30:00.438Z,15.97
2018-01-10T13:32:29.400Z,18.30
2018-01-10T13:34:59.177Z,16.80
2018-01-10T13:37:28.144Z,17.77
2018-01-10T13:39:57.140Z,15.07
2018-01-10T13:42:26.580Z,15.40
2018-01-10T13:44:55.527Z,16.83
2018-01-10T13:47:24.569Z,18.10
2018-01-10T13:49:54.904Z,18.20
2018-01-10T13:52:24.264Z,18.40
2018-01-10T13:54:53.733Z,16.87
2018-01-10T13:57:22.867Z,16.43
2018-01-10T13:59:53.354Z,15.47
2018-01-10T14:02:23.137Z,17.23
2018-01-10T14:04:52.864Z,14.97
2018-01-10T14:07:21.866Z,15.20
2018-01-10T14:09:51.165Z,16.40
2018-01-10T14:12:20.125Z,16.77
2018-01-10T14:14:49.873Z,17.33
2018-01-10T14:17:18.881Z,16.80
2018-01-10T14:19:48.644Z,15.97
2018-01-10T14:22:17.621Z,18.00
2018-01-10T14:24:46.559Z,18.03
2018-01-10T14:27:15.536Z,16.50
2018-01-10T14:29:45.248Z,16.70
2018-01-10T14:32:15.376Z,16.20
2018-01-10T14:34:44.739Z,18.70
2018-01-10T14:37:14.459Z,17.10
2018-01-10T14:39:47.340Z,14.60
2018-01-10T14:42:17.157Z,14.47
2018-01-10T14:44:46.951Z,15.90
2018-01-10T14:47:16.398Z,15.93
2018-01-10T14:49:46.497Z,19.37
2018-01-10T14:52:15.572Z,15.37
2018-01-10T14:54:44.574Z,16.97
2018-01-10T14:57:14.329Z,15.30
2018-01-10T14:59:44.400Z,16.77
2018-01-10T15:02:14.156Z,15.77
2018-01-10T15:04:43.854Z,15.30
2018-01-10T15:07:13.620Z,15.13
2018-01-10T15:09:42.962Z,15.83
2018-01-10T15:12:12.695Z,15.50
2018-01-10T15:14:41.631Z,17.57
2018-01-10T15:17:11.368Z,16.50
2018-01-10T15:19:41.485Z,15.20
2018-01-10T15:22:10.440Z,16.27
2018-01-10T15:24:40.193Z,16.80
2018-01-10T15:27:09.559Z,16.90
2018-01-10T15:29:38.978Z,16.20
2018-01-10T15:32:08.400Z,17.17
2018-01-10T15:34:37.794Z,17.70
2018-01-10T15:37:07.283Z,16.40
2018-01-10T15:39:36.512Z,16.87
2018-01-10T15:42:05.482Z,15.67
2018-01-10T15:44:35.237Z,16.53
2018-01-10T15:47:04.200Z,16.30
2018-01-10T15:49:33.580Z,14.53
2018-01-10T15:52:02.557Z,14.30
2018-01-10T15:54:32.266Z,17.00
2018-01-10T15:57:02.184Z,15.77
2018-01-10T15:59:31.592Z,15.53
2018-01-10T16:02:00.544Z,16.17
2018-01-10T16:04:29.495Z,17.27
2018-01-10T16:06:58.558Z,15.53
2018-01-10T16:09:28.240Z,16.40
2018-01-10T16:11:57.326Z,17.80
2018-01-10T16:14:26.311Z,17.03
2018-01-10T16:16:55.264Z,15.90
2018-01-10T16:19:24.985Z,18.43
2018-01-10T16:21:55.086Z,17.90
2018-01-10T16:24:24.057Z,17.10
2018-01-10T16:26:53.884Z,17.40
2018-01-10T16:29:23.596Z,18.80
2018-01-10T16:31:52.575Z,18.10
2018-01-10T16:34:21.653Z,17.87
2018-01-10T16:36:52.199Z,17.87
2018-01-10T16:39:21.182Z,15.63
2018-01-10T16:41:50.205Z,17.03
2018-01-10T16:44:19.232Z,16.63
2018-01-10T16:46:48.188Z,16.13
2018-01-10T16:49:17.173Z,18.53
2018-01-10T16:51:46.565Z,18.80
2018-01-10T16:54:15.542Z,18.10
2018-01-10T16:56:44.552Z,16.33
2018-01-10T16:59:13.548Z,15.17
2018-01-10T17:01:43.265Z,18.27
2018-01-10T17:04:13.199Z,20.00
2018-01-10T17:06:42.158Z,16.70
2018-01-10T17:09:11.952Z,21.90
2018-01-10T17:11:40.868Z,17.10
2018-01-10T17:14:10.615Z,18.27
2018-01-10T17:16:39.569Z,18.60
2018-01-10T17:19:08.930Z,17.40
2018-01-10T17:21:37.903Z,16.17
2018-01-10T17:24:06.860Z,17.63
2018-01-10T17:26:36.364Z,17.87
2018-01-10T17:29:05.750Z,18.67
2018-01-10T17:31:36.218Z,18.40
2018-01-10T17:34:05.623Z,16.90
2018-01-10T17:36:34.615Z,19.30
2018-01-10T17:39:03.584Z,20.63
2018-01-10T17:41:32.609Z,19.10
2018-01-10T17:44:02.335Z,16.40
2018-01-10T17:46:31.341Z,17.93
2018-01-10T17:49:01.817Z,18.03
2018-01-10T17:51:30.787Z,15.63
2018-01-10T17:54:00.523Z,18.77
2018-01-10T17:56:29.578Z,16.87
2018-01-10T17:58:58.533Z,18.03
2018-01-10T18:01:27.949Z,18.40
2018-01-10T18:03:57.708Z,17.80
2018-01-10T18:06:26.641Z,19.97
2018-01-10T18:08:55.623Z,20.17
2018-01-10T18:11:24.614Z,19.50
2018-01-10T18:13:53.665Z,17.30
2018-01-10T18:16:22.640Z,17.30
2018-01-10T18:18:52.400Z,17.90
2018-01-10T18:21:22.145Z,17.17
2018-01-10T18:23:51.526Z,17.53
2018-01-10T18:26:21.349Z,16.47
2018-01-10T18:28:51.060Z,15.67
2018-01-10T18:31:20.299Z,19.47
2018-01-10T18:33:50.050Z,20.17
2018-01-10T18:36:19.025Z,18.67
2018-01-10T18:38:48.009Z,17.37
2018-01-10T18:41:17.006Z,17.00
2018-01-10T18:43:46.512Z,15.30
2018-01-10T18:46:16.269Z,16.37
2018-01-10T18:48:45.620Z,16.70
2018-01-10T18:51:14.605Z,16.13
2018-01-10T18:53:43.590Z,16.10
2018-01-10T18:56:12.913Z,16.43
2018-01-10T18:58:41.885Z,17.67
2018-01-10T19:01:11.311Z,16.73
2018-01-10T19:03:41.941Z,15.80
2018-01-10T19:06:10.997Z,17.83
2018-01-10T19:08:40.753Z,18.83
2018-01-10T19:11:09.802Z,17.50
2018-01-10T19:13:39.208Z,18.10
2018-01-10T19:16:08.198Z,17.93
2018-01-10T19:18:37.165Z,18.03
2018-01-10T19:21:06.151Z,15.97
2018-01-10T19:23:35.537Z,17.77
2018-01-10T19:26:04.960Z,15.20
2018-01-10T19:28:34.730Z,17.90
2018-01-10T19:31:03.730Z,14.30
2018-01-10T19:33:33.496Z,15.40
2018-01-10T19:36:02.486Z,16.50
2018-01-10T19:38:31.464Z,15.10
2018-01-10T19:41:00.510Z,15.90
2018-01-10T19:43:29.943Z,15.83
2018-01-10T19:46:00.075Z,16.67
2018-01-10T19:48:29.194Z,15.37
2018-01-10T19:50:58.992Z,15.50
2018-01-10T19:53:28.366Z,17.27
2018-01-10T19:55:57.396Z,15.07
2018-01-10T19:58:27.580Z,15.13
2018-01-10T20:00:56.582Z,16.80
2018-01-10T20:03:26.403Z,16.10
2018-01-10T20:05:56.204Z,15.20
2018-01-10T20:08:25.680Z,15.40
2018-01-10T20:10:55.465Z,17.10
2018-01-10T20:13:25.278Z,15.93
2018-01-10T20:15:55.075Z,14.90
2018-01-10T20:18:24.053Z,15.43
2018-01-10T20:20:53.874Z,15.80
2018-01-10T20:23:23.631Z,17.20
2018-01-10T20:25:52.672Z,15.50
2018-01-10T20:28:22.762Z,15.80
2018-01-10T20:30:51.793Z,15.80
2018-01-10T20:33:21.286Z,15.07
2018-01-10T20:35:51.315Z,14.97
2018-01-10T20:38:21.396Z,15.40
2018-01-10T20:40:51.043Z,15.97
2018-01-10T20:43:20.825Z,16.03
2018-01-10T20:45:49.948Z,17.40
2018-01-10T20:48:18.969Z,15.23
2018-01-10T20:50:49.696Z,15.27
2018-01-10T20:53:18.758Z,16.53
2018-01-10T20:55:48.532Z,15.93
2018-01-10T20:58:17.633Z,16.57
2018-01-10T21:00:46.643Z,14.80
2018-01-10T21:03:15.617Z,15.50
2018-01-10T21:05:45.151Z,15.00
2018-01-10T21:08:14.676Z,15.97
2018-01-10T21:10:44.434Z,17.73
2018-01-10T21:13:14.430Z,16.20
2018-01-10T21:15:43.391Z,16.70
2018-01-10T21:18:12.830Z,17.00
2018-01-10T21:20:41.883Z,16.50
2018-01-10T21:23:10.876Z,15.43
2018-01-10T21:25:40.629Z,15.97
2018-01-10T21:28:10.409Z,17.00
2018-01-10T21:30:42.332Z,14.00
2018-01-10T21:33:11.738Z,15.00
2018-01-10T21:35:40.753Z,14.63
2018-01-10T21:38:11.281Z,14.17
2018-01-10T21:40:41.492Z,14.77
2018-01-10T21:43:10.516Z,15.13
2018-01-10T21:45:39.504Z,14.33
2018-01-10T21:48:08.915Z,13.73
2018-01-10T21:50:37.906Z,16.30
2018-01-10T21:53:07.358Z,15.60
2018-01-10T21:55:37.154Z,14.37
2018-01-10T21:58:06.529Z,13.97
2018-01-10T22:00:35.511Z,14.63
2018-01-10T22:03:04.517Z,15.53
2018-01-10T22:05:33.470Z,14.93
2018-01-10T22:08:02.879Z,14.37
2018-01-10T22:10:32.237Z,12.40
2018-01-10T22:13:01.592Z,15.07
2018-01-10T22:15:31.038Z,14.67
2018-01-10T22:17:59.995Z,13.87
2018-01-10T22:20:29.695Z,14.20
2018-01-10T22:22:58.786Z,14.80
2018-01-10T22:25:28.148Z,12.97
2018-01-10T22:27:57.922Z,12.73
2018-01-10T22:30:27.638Z,14.17
2018-01-10T22:32:56.580Z,13.80
2018-01-10T22:35:26.331Z,13.73
2018-01-10T22:37:55.401Z,13.60
2018-01-10T22:40:24.580Z,13.63
2018-01-10T22:42:53.940Z,12.87
2018-01-10T22:45:23.735Z,14.37
2018-01-10T22:47:53.471Z,13.00
2018-01-10T22:50:22.426Z,14.70
2018-01-10T22:52:51.401Z,11.87
2018-01-10T22:55:20.759Z,14.03
2018-01-10T22:57:50.111Z,13.90
2018-01-10T23:00:24.785Z,15.17
2018-01-10T23:02:53.764Z,14.13
2018-01-10T23:05:23.541Z,14.90
2018-01-10T23:07:53.334Z,13.90
2018-01-10T23:10:23.790Z,14.80
2018-01-10T23:12:52.778Z,12.87
2018-01-10T23:15:21.707Z,13.20
2018-01-10T23:17:50.726Z,13.40
2018-01-10T23:20:19.662Z,13.27
2018-01-10T23:22:49.425Z,13.63
2018-01-10T23:25:18.446Z,14.67
2018-01-10T23:27:47.797Z,13.57
2018-01-10T23:30:16.772Z,13.60
2018-01-10T23:32:45.781Z,12.73
2018-01-10T23:35:14.966Z,14.70
2018-01-10T23:37:44.659Z,13.90
2018-01-10T23:40:13.637Z,15.37
2018-01-10T23:42:42.620Z,14.53
2018-01-10T23:45:11.971Z,14.07
2018-01-10T23:47:41.689Z,15.23
2018-01-10T23:50:10.693Z,13.97
2018-01-10T23:52:40.436Z,14.50
2018-01-10T23:55:09.380Z,13.47
2018-01-10T23:57:38.760Z,13.40
